createdAt,value
2022-12-15T00:01:12.251Z,52560.42
2022-12-15T00:03:59.840Z,52565.24
2022-12-15T00:06:47.437Z,52571.68
2022-12-15T00:09:35.246Z,52583.73
2022-12-15T00:12:22.739Z,52572.48
2022-12-15T00:15:10.247Z,52571.27
2022-12-15T00:17:57.752Z,52567.25
2022-12-15T00:20:45.173Z,52574.09
2022-12-15T00:23:32.878Z,52564.04
2022-12-15T00:26:20.662Z,52565.64
2022-12-15T00:29:08.096Z,52555.20
2022-12-15T00:31:55.881Z,52553.19
2022-12-15T00:34:43.754Z,52568.86
2022-12-15T00:37:31.250Z,52544.74
2022-12-15T00:40:05.195Z,52563.23
2022-12-15T00:42:35.016Z,52576.90
2022-12-15T00:45:05.072Z,52562.83
2022-12-15T00:47:35.040Z,52564.44
2022-12-15T00:50:22.390Z,52559.21
2022-12-15T00:53:09.849Z,52569.26
2022-12-15T00:55:57.372Z,52574.49
2022-12-15T00:58:45.231Z,52562.82
2022-12-15T01:01:32.583Z,52554.39
2022-12-15T01:04:20.357Z,52572.48
2022-12-15T01:07:08.104Z,52574.49
2022-12-15T01:09:55.751Z,52560.82
2022-12-15T01:12:43.193Z,52573.27
2022-12-15T01:15:30.876Z,52562.83
2022-12-15T01:18:18.664Z,52562.03
2022-12-15T01:20:48.566Z,52567.66
2022-12-15T01:23:18.356Z,52568.86
2022-12-15T01:25:49.619Z,52563.64
2022-12-15T01:28:19.703Z,52578.51
2022-12-15T01:30:49.695Z,52558.01
2022-12-15T01:33:19.913Z,52551.98
2022-12-15T01:35:57.509Z,52571.27
2022-12-15T01:38:27.774Z,52549.97
2022-12-15T01:40:58.612Z,52564.44
2022-12-15T01:43:29.629Z,52581.32
2022-12-15T01:46:01.841Z,52563.24
2022-12-15T01:48:37.100Z,52558.41
2022-12-15T01:51:23.570Z,52564.44
2022-12-15T01:53:55.768Z,52579.30
2022-12-15T01:56:26.410Z,52564.84
2022-12-15T01:58:56.553Z,52561.63
2022-12-15T02:01:26.616Z,52568.46
2022-12-15T02:03:57.006Z,52551.58
2022-12-15T02:06:26.838Z,52549.97
2022-12-15T02:08:57.022Z,52556.40
2022-12-15T02:11:34.802Z,52547.55
2022-12-15T02:14:05.118Z,52549.57
2022-12-15T02:16:38.881Z,52554.79
2022-12-15T02:19:11.917Z,52552.38
2022-12-15T02:21:42.551Z,52550.37
2022-12-15T02:24:41.265Z,52557.61
2022-12-15T02:27:30.296Z,52562.43
2022-12-15T02:30:20.060Z,52542.74
2022-12-15T02:32:59.330Z,52572.88
2022-12-15T02:35:30.117Z,52560.42
2022-12-15T02:38:00.051Z,52551.98
2022-12-15T02:40:30.168Z,52551.58
2022-12-15T02:43:00.068Z,52551.98
2022-12-15T02:45:32.019Z,52554.79
2022-12-15T02:48:04.581Z,52540.32
2022-12-15T02:50:41.913Z,52547.56
2022-12-15T02:53:15.687Z,52558.01
2022-12-15T02:55:48.231Z,52546.76
2022-12-15T02:58:24.149Z,52546.36
2022-12-15T03:00:55.644Z,52560.82
2022-12-15T03:03:25.502Z,52554.39
2022-12-15T03:05:55.481Z,52556.00
2022-12-15T03:08:25.322Z,52554.39
2022-12-15T03:10:55.154Z,52552.78
2022-12-15T03:13:25.993Z,52566.85
2022-12-15T03:15:55.883Z,52553.18
2022-12-15T03:18:25.634Z,52566.45
2022-12-15T03:20:55.761Z,52549.16
2022-12-15T03:23:25.535Z,52546.75
2022-12-15T03:25:56.754Z,52565.64
2022-12-15T03:28:26.707Z,52548.36
2022-12-15T03:30:57.688Z,52547.96
2022-12-15T03:33:27.690Z,52553.99
2022-12-15T03:35:57.757Z,52559.61
2022-12-15T03:38:27.740Z,52559.61
2022-12-15T03:40:57.912Z,52533.89
2022-12-15T03:43:27.781Z,52553.99
2022-12-15T03:45:57.825Z,52563.23
2022-12-15T03:48:27.757Z,52542.74
2022-12-15T03:50:57.904Z,52566.45
2022-12-15T03:53:28.130Z,52567.25
2022-12-15T03:55:58.182Z,52530.68
2022-12-15T03:58:28.038Z,52570.46
2022-12-15T04:00:58.354Z,52537.91
2022-12-15T04:03:29.201Z,52562.02
2022-12-15T04:05:59.441Z,52547.16
2022-12-15T04:08:29.215Z,52562.83
2022-12-15T04:10:59.315Z,52559.61
2022-12-15T04:13:29.505Z,52558.41
2022-12-15T04:15:59.659Z,52563.23
2022-12-15T04:18:29.824Z,52566.85
2022-12-15T04:20:59.599Z,52563.63
2022-12-15T04:23:29.738Z,52541.94
2022-12-15T04:26:17.846Z,52577.29
2022-12-15T04:29:05.318Z,52560.02
2022-12-15T04:31:52.689Z,52554.79
2022-12-15T04:34:40.745Z,52540.73
2022-12-15T04:37:29.893Z,52562.02
2022-12-15T04:40:17.243Z,52558.81
2022-12-15T04:43:05.148Z,52541.13
2022-12-15T04:45:53.051Z,52560.42
2022-12-15T04:48:40.699Z,52552.78
2022-12-15T04:51:28.341Z,52558.01
2022-12-15T04:54:15.839Z,52540.73
2022-12-15T04:57:03.793Z,52560.82
2022-12-15T04:59:51.643Z,52538.72
2022-12-15T05:02:39.284Z,52543.14
2022-12-15T05:05:27.269Z,52547.55
2022-12-15T05:08:18.008Z,52549.57
2022-12-15T05:11:05.658Z,52555.59
2022-12-15T05:13:53.219Z,52555.59
2022-12-15T05:16:40.870Z,52555.60
2022-12-15T05:19:28.566Z,52547.56
2022-12-15T05:22:16.390Z,52552.78
2022-12-15T05:25:03.733Z,52538.31
2022-12-15T05:27:51.237Z,52539.12
2022-12-15T05:30:38.859Z,52549.97
2022-12-15T05:33:10.895Z,52549.97
2022-12-15T05:35:41.157Z,52544.34
2022-12-15T05:38:11.176Z,52542.74
2022-12-15T05:40:41.273Z,52545.55
2022-12-15T05:43:11.173Z,52549.57
2022-12-15T05:45:41.149Z,52540.32
2022-12-15T05:48:11.461Z,52545.15
2022-12-15T05:50:41.558Z,52550.38
2022-12-15T05:53:11.616Z,52544.74
2022-12-15T05:55:41.388Z,52547.55
2022-12-15T05:58:11.317Z,52536.30
2022-12-15T06:00:41.279Z,52535.90
2022-12-15T06:03:11.310Z,52529.48
2022-12-15T06:05:42.428Z,52537.91
2022-12-15T06:08:12.445Z,52543.95
2022-12-15T06:10:42.471Z,52547.16
2022-12-15T06:13:12.425Z,52539.92
2022-12-15T06:15:42.257Z,52554.39
2022-12-15T06:18:12.135Z,52527.06
2022-12-15T06:20:42.037Z,52541.93
2022-12-15T06:23:12.290Z,52557.61
2022-12-15T06:25:42.406Z,52544.74
2022-12-15T06:28:12.269Z,52544.34
2022-12-15T06:30:42.630Z,52534.29
2022-12-15T06:33:12.927Z,52543.54
2022-12-15T06:35:42.771Z,52536.71
2022-12-15T06:38:12.952Z,52540.32
2022-12-15T06:40:44.403Z,52542.34
2022-12-15T06:43:14.458Z,52552.38
2022-12-15T06:45:44.297Z,52554.79
2022-12-15T06:48:19.896Z,52539.12
2022-12-15T06:50:50.127Z,52540.32
2022-12-15T06:53:21.242Z,52537.11
2022-12-15T06:55:51.306Z,52529.07
2022-12-15T06:58:21.188Z,52529.07
2022-12-15T07:00:51.350Z,52534.70
2022-12-15T07:03:22.195Z,52541.52
2022-12-15T07:06:01.525Z,52557.21
2022-12-15T07:08:37.929Z,52548.76
2022-12-15T07:11:13.025Z,52538.72
2022-12-15T07:13:42.809Z,52543.54
2022-12-15T07:16:13.068Z,52535.10
2022-12-15T07:18:42.923Z,52525.05
2022-12-15T07:21:13.005Z,52522.64
2022-12-15T07:23:54.581Z,52548.36
2022-12-15T07:26:26.082Z,52560.02
2022-12-15T07:28:56.523Z,52529.48
2022-12-15T07:31:27.417Z,52543.54
2022-12-15T07:33:57.324Z,52529.07
2022-12-15T07:36:27.967Z,52527.06
2022-12-15T07:39:01.654Z,52549.57
2022-12-15T07:41:31.655Z,52535.50
2022-12-15T07:44:02.680Z,52533.09
2022-12-15T07:46:32.947Z,52545.15
2022-12-15T07:49:02.830Z,52520.63
2022-12-15T07:51:33.281Z,52531.08
2022-12-15T07:54:03.417Z,52530.68
2022-12-15T07:56:39.011Z,52528.27
2022-12-15T07:59:10.143Z,52536.30
2022-12-15T08:01:40.387Z,52529.88
2022-12-15T08:04:10.598Z,52536.71
2022-12-15T08:06:40.534Z,52519.82
2022-12-15T08:09:11.213Z,52537.51
2022-12-15T08:11:41.252Z,52525.45
2022-12-15T08:14:16.889Z,52535.10
2022-12-15T08:16:47.660Z,52543.54
2022-12-15T08:19:18.257Z,52531.08
2022-12-15T08:21:48.840Z,52527.46
2022-12-15T08:24:19.771Z,52517.41
2022-12-15T08:26:53.318Z,52554.79
2022-12-15T08:32:18.596Z,52541.53
2022-12-15T08:34:49.930Z,52537.51
2022-12-15T08:37:20.576Z,52521.84
2022-12-15T08:39:50.575Z,52533.49
2022-12-15T08:42:20.797Z,52529.07
2022-12-15T08:44:51.634Z,52523.84
2022-12-15T08:47:22.161Z,52515.00
2022-12-15T08:49:53.233Z,52502.95
2022-12-15T08:52:23.127Z,52517.42
2022-12-15T08:54:53.195Z,52520.63
2022-12-15T08:57:23.110Z,52525.45
2022-12-15T08:59:53.393Z,52512.99
2022-12-15T09:02:24.014Z,52527.06
2022-12-15T09:04:54.113Z,52527.86
2022-12-15T09:07:24.150Z,52517.82
2022-12-15T09:09:54.150Z,52515.41
2022-12-15T09:12:24.584Z,52519.02
2022-12-15T09:14:54.536Z,52506.96
2022-12-15T09:17:24.389Z,52521.44
2022-12-15T09:19:54.294Z,52530.68
2022-12-15T09:22:24.099Z,52517.01
2022-12-15T09:24:54.234Z,52510.58
2022-12-15T09:27:24.338Z,52517.41
2022-12-15T09:29:54.466Z,52508.57
2022-12-15T09:32:24.131Z,52514.20
2022-12-15T09:34:53.938Z,52503.75
2022-12-15T09:37:23.653Z,52517.01
2022-12-15T09:39:53.957Z,52517.42
2022-12-15T09:42:25.353Z,52519.82
2022-12-15T09:44:57.556Z,52502.15
2022-12-15T09:47:28.855Z,52509.78
2022-12-15T09:49:59.258Z,52511.39
2022-12-15T09:52:29.829Z,52499.73
2022-12-15T09:55:01.933Z,52525.05
2022-12-15T09:57:35.012Z,52523.84
2022-12-15T10:00:07.199Z,52502.54
2022-12-15T10:03:09.813Z,52506.16
2022-12-15T10:06:06.862Z,52511.79
2022-12-15T10:08:34.615Z,52484.46
2022-12-15T10:11:05.563Z,52501.74
2022-12-15T10:13:38.540Z,52506.97
2022-12-15T10:16:10.467Z,52505.76
2022-12-15T10:18:41.137Z,52497.72
2022-12-15T10:21:14.323Z,52508.98
2022-12-15T10:23:44.620Z,52497.32
2022-12-15T10:26:19.414Z,52508.57
2022-12-15T10:28:52.783Z,52498.52
2022-12-15T10:31:26.019Z,52504.16
2022-12-15T10:33:57.277Z,52493.30
2022-12-15T10:36:26.986Z,52506.97
2022-12-15T10:38:56.728Z,52503.75
2022-12-15T10:41:27.097Z,52511.79
2022-12-15T10:43:57.742Z,52505.76
2022-12-15T10:46:27.965Z,52497.32
2022-12-15T10:48:58.439Z,52489.69
2022-12-15T10:51:29.256Z,52496.52
2022-12-15T10:54:06.977Z,52514.20
2022-12-15T10:56:37.181Z,52519.82
2022-12-15T10:59:22.946Z,52508.98
2022-12-15T11:01:53.785Z,52494.51
2022-12-15T11:04:30.566Z,52500.13
2022-12-15T11:07:00.674Z,52502.54
2022-12-15T11:09:34.727Z,52493.71
2022-12-15T11:12:22.302Z,52492.90
2022-12-15T11:14:52.793Z,52493.30
2022-12-15T11:17:23.221Z,52503.35
2022-12-15T11:19:58.206Z,52487.27
2022-12-15T11:22:36.112Z,52497.73
2022-12-15T11:25:06.877Z,52491.70
2022-12-15T11:27:37.526Z,52486.47
2022-12-15T11:30:13.008Z,52490.09
2022-12-15T11:32:43.918Z,52483.25
2022-12-15T11:35:15.408Z,52490.89
2022-12-15T11:37:45.525Z,52489.69
2022-12-15T11:40:18.711Z,52488.48
2022-12-15T11:42:51.542Z,52488.88
2022-12-15T11:45:22.559Z,52481.65
2022-12-15T11:47:53.881Z,52479.64
2022-12-15T11:50:26.753Z,52488.48
2022-12-15T11:53:00.748Z,52497.73
2022-12-15T11:55:37.480Z,52495.31
2022-12-15T11:58:19.809Z,52500.54
2022-12-15T12:00:51.460Z,52479.64
2022-12-15T12:03:26.838Z,52487.68
2022-12-15T12:06:05.582Z,52492.90
2022-12-15T12:08:41.561Z,52490.49
2022-12-15T12:11:12.500Z,52487.68
2022-12-15T12:13:44.852Z,52491.29
2022-12-15T12:16:18.147Z,52481.65
2022-12-15T12:18:50.453Z,52481.24
2022-12-15T12:21:21.187Z,52490.49
2022-12-15T12:23:51.816Z,52481.65
2022-12-15T12:26:23.577Z,52487.27
2022-12-15T12:28:58.332Z,52486.07
2022-12-15T12:31:30.860Z,52484.46
2022-12-15T12:34:03.054Z,52483.26
2022-12-15T12:36:33.147Z,52477.63
2022-12-15T12:39:02.937Z,52496.11
2022-12-15T12:41:34.998Z,52490.09
2022-12-15T12:44:05.866Z,52486.47
2022-12-15T12:46:37.511Z,52493.71
2022-12-15T12:49:08.308Z,52482.85
2022-12-15T12:51:38.176Z,52489.28
2022-12-15T12:54:21.765Z,52474.41
2022-12-15T12:56:52.023Z,52484.86
2022-12-15T12:59:36.836Z,52493.30
2022-12-15T13:02:29.605Z,52468.79
2022-12-15T13:05:05.824Z,52494.51
2022-12-15T13:07:36.599Z,52489.69
2022-12-15T13:10:14.774Z,52486.48
2022-12-15T13:12:53.222Z,52485.26
2022-12-15T13:15:32.954Z,52473.61
2022-12-15T13:18:07.891Z,52472.80
2022-12-15T13:20:38.548Z,52474.81
2022-12-15T13:23:37.767Z,52493.30
2022-12-15T13:26:17.418Z,52473.61
2022-12-15T13:28:49.541Z,52485.26
2022-12-15T13:31:27.842Z,52490.49
2022-12-15T13:34:15.644Z,52489.29
2022-12-15T13:36:54.489Z,52485.26
2022-12-15T13:39:51.000Z,52484.86
2022-12-15T13:42:38.887Z,52484.86
2022-12-15T13:45:36.191Z,52490.49
2022-12-15T13:48:10.469Z,52486.47
2022-12-15T13:50:42.736Z,52495.71
2022-12-15T13:56:18.904Z,52496.52
2022-12-15T13:58:49.554Z,52490.09
2022-12-15T14:01:28.598Z,52491.70
2022-12-15T14:04:01.418Z,52481.65
2022-12-15T14:06:35.770Z,52468.39
2022-12-15T14:09:06.783Z,52488.48
2022-12-15T14:11:52.413Z,52490.09
2022-12-15T14:14:25.199Z,52480.04
2022-12-15T14:16:56.475Z,52492.10
2022-12-15T14:19:26.644Z,52469.99
2022-12-15T14:21:57.167Z,52500.95
2022-12-15T14:24:38.601Z,52492.50
2022-12-15T14:27:09.513Z,52478.84
2022-12-15T14:29:39.713Z,52481.65
2022-12-15T14:32:11.233Z,52492.10
2022-12-15T14:34:42.134Z,52487.27
2022-12-15T14:37:13.540Z,52482.85
2022-12-15T14:39:44.147Z,52482.45
2022-12-15T14:42:16.491Z,52494.10
2022-12-15T14:44:52.047Z,52462.76
2022-12-15T14:47:27.093Z,52476.82
2022-12-15T14:49:57.818Z,52487.68
2022-12-15T14:52:29.487Z,52482.85
2022-12-15T14:54:59.979Z,52477.63
2022-12-15T14:57:30.870Z,52477.63
2022-12-15T15:00:01.402Z,52498.53
2022-12-15T15:02:31.788Z,52495.31
2022-12-15T15:05:03.687Z,52493.71
2022-12-15T15:07:34.215Z,52476.02
2022-12-15T15:10:04.566Z,52460.35
2022-12-15T15:12:43.977Z,52483.66
2022-12-15T15:15:18.803Z,52498.93
2022-12-15T15:17:50.164Z,52483.66
2022-12-15T15:20:21.748Z,52469.59
2022-12-15T15:23:04.801Z,52484.46
2022-12-15T15:25:41.398Z,52462.76
2022-12-15T15:28:23.299Z,52482.05
2022-12-15T15:30:56.259Z,52478.44
2022-12-15T15:33:26.756Z,52478.43
2022-12-15T15:35:57.631Z,52493.30
2022-12-15T15:38:28.930Z,52480.44
2022-12-15T15:40:59.524Z,52499.33
2022-12-15T15:43:30.044Z,52484.86
2022-12-15T15:46:02.358Z,52501.34
2022-12-15T15:48:33.823Z,52490.49
2022-12-15T15:51:03.798Z,52484.05
2022-12-15T15:53:34.978Z,52475.22
2022-12-15T15:56:07.967Z,52498.93
2022-12-15T15:58:37.798Z,52467.99
2022-12-15T16:01:12.898Z,52496.11
2022-12-15T16:03:43.385Z,52479.24
2022-12-15T16:06:15.973Z,52476.82
2022-12-15T16:08:45.954Z,52490.09
2022-12-15T16:11:15.830Z,52490.49
2022-12-15T16:13:45.900Z,52492.50
2022-12-15T16:16:18.067Z,52477.63
2022-12-15T16:18:48.465Z,52503.75
2022-12-15T16:21:18.639Z,52473.61
2022-12-15T16:23:49.070Z,52492.50
2022-12-15T16:26:21.531Z,52509.38
2022-12-15T16:28:51.396Z,52490.09
2022-12-15T16:31:32.783Z,52495.31
2022-12-15T16:34:06.085Z,52467.18
2022-12-15T16:36:36.576Z,52492.90
2022-12-15T16:39:06.514Z,52487.68
2022-12-15T16:41:36.469Z,52483.26
2022-12-15T16:44:11.923Z,52500.13
2022-12-15T16:46:42.166Z,52487.68
2022-12-15T16:49:12.371Z,52488.48
2022-12-15T16:51:44.028Z,52500.94
2022-12-15T16:54:15.908Z,52482.05
2022-12-15T16:56:47.257Z,52499.33
2022-12-15T16:59:34.863Z,52483.66
2022-12-15T17:02:07.282Z,52492.10
2022-12-15T17:04:37.110Z,52485.26
2022-12-15T17:07:07.145Z,52505.76
2022-12-15T17:09:38.388Z,52488.48
2022-12-15T17:12:09.949Z,52490.49
2022-12-15T17:14:40.103Z,52488.88
2022-12-15T17:17:12.387Z,52498.13
2022-12-15T17:19:57.837Z,52494.51
2022-12-15T17:22:33.671Z,52500.94
2022-12-15T17:25:03.693Z,52491.70
2022-12-15T17:27:33.905Z,52492.90
2022-12-15T17:30:03.970Z,52483.66
2022-12-15T17:32:34.277Z,52497.73
2022-12-15T17:35:04.098Z,52486.47
2022-12-15T17:37:35.536Z,52493.71
2022-12-15T17:40:07.664Z,52486.87
2022-12-15T17:42:37.457Z,52497.32
2022-12-15T17:45:11.088Z,52490.89
2022-12-15T17:47:41.270Z,52496.93
2022-12-15T17:50:11.991Z,52501.34
2022-12-15T17:52:42.276Z,52492.49
2022-12-15T17:55:20.360Z,52495.31
2022-12-15T17:57:50.594Z,52496.12
2022-12-15T18:00:22.109Z,52496.52
2022-12-15T18:02:52.182Z,52484.06
2022-12-15T18:05:22.537Z,52463.56
2022-12-15T18:07:53.330Z,52495.71
2022-12-15T18:10:27.544Z,52506.57
2022-12-15T18:12:57.565Z,52488.88
2022-12-15T18:15:31.359Z,52504.15
2022-12-15T18:18:01.857Z,52494.51
2022-12-15T18:20:31.803Z,52508.98
2022-12-15T18:23:01.986Z,52495.71
2022-12-15T18:25:32.357Z,52507.37
2022-12-15T18:28:02.549Z,52505.76
2022-12-15T18:30:32.676Z,52493.71
2022-12-15T18:33:02.696Z,52504.96
2022-12-15T18:35:34.760Z,52490.89
2022-12-15T18:38:05.001Z,52495.31
2022-12-15T18:40:35.440Z,52493.71
2022-12-15T18:43:06.971Z,52499.33
2022-12-15T18:45:37.066Z,52474.82
2022-12-15T18:48:11.121Z,52495.31
2022-12-15T18:50:41.231Z,52488.48
2022-12-15T18:53:13.932Z,52504.96
2022-12-15T18:55:43.922Z,52471.60
2022-12-15T18:58:19.487Z,52499.33
2022-12-15T19:00:50.577Z,52498.93
2022-12-15T19:03:20.583Z,52490.89
2022-12-15T19:05:50.726Z,52493.30
2022-12-15T19:08:20.875Z,52485.66
2022-12-15T19:10:52.406Z,52489.69
2022-12-15T19:13:23.931Z,52484.46
2022-12-15T19:15:54.477Z,52488.48
2022-12-15T19:18:42.069Z,52486.07
2022-12-15T19:21:43.261Z,52488.88
2022-12-15T19:24:13.717Z,52482.86
2022-12-15T19:26:43.899Z,52495.71
2022-12-15T19:29:18.302Z,52500.94
2022-12-15T19:31:48.576Z,52493.30
2022-12-15T19:34:18.445Z,52490.89
2022-12-15T19:36:48.869Z,52506.57
2022-12-15T19:39:20.066Z,52504.15
2022-12-15T19:41:49.976Z,52492.50
2022-12-15T19:44:20.378Z,52499.73
2022-12-15T19:46:50.323Z,52486.07
2022-12-15T19:49:20.389Z,52495.31
2022-12-15T19:51:50.318Z,52496.52
2022-12-15T19:54:20.973Z,52492.90
2022-12-15T19:56:52.049Z,52514.60
2022-12-15T19:59:23.667Z,52504.16
2022-12-15T20:01:54.052Z,52488.07
2022-12-15T20:04:25.630Z,52480.84
2022-12-15T20:06:55.717Z,52492.09
2022-12-15T20:09:25.523Z,52484.06
2022-12-15T20:11:55.435Z,52487.27
2022-12-15T20:14:25.989Z,52476.82
2022-12-15T20:16:56.286Z,52482.46
2022-12-15T20:19:26.198Z,52480.04
2022-12-15T20:21:56.282Z,52498.93
2022-12-15T20:24:26.356Z,52487.68
2022-12-15T20:26:56.315Z,52509.38
2022-12-15T20:29:27.118Z,52484.86
2022-12-15T20:31:57.017Z,52511.39
2022-12-15T20:34:27.509Z,52481.25
2022-12-15T20:36:58.004Z,52481.65
2022-12-15T20:39:29.702Z,52480.85
2022-12-15T20:41:59.686Z,52475.62
2022-12-15T20:44:29.740Z,52472.01
2022-12-15T20:46:59.534Z,52482.05
2022-12-15T20:49:29.719Z,52480.84
2022-12-15T20:52:00.281Z,52495.71
2022-12-15T20:54:30.129Z,52486.47
2022-12-15T20:57:00.051Z,52485.67
2022-12-15T20:59:30.054Z,52475.22
2022-12-15T21:02:00.445Z,52482.45
2022-12-15T21:04:32.369Z,52479.64
2022-12-15T21:07:02.474Z,52494.11
2022-12-15T21:09:33.675Z,52483.66
2022-12-15T21:12:09.056Z,52476.82
2022-12-15T21:14:40.036Z,52486.07
2022-12-15T21:17:11.989Z,52479.64
2022-12-15T21:19:42.119Z,52478.84
2022-12-15T21:22:15.889Z,52491.29
2022-12-15T21:24:46.030Z,52468.39
2022-12-15T21:27:16.438Z,52484.46
2022-12-15T21:29:52.020Z,52487.68
2022-12-15T21:32:26.894Z,52477.63
2022-12-15T21:34:57.278Z,52491.70
2022-12-15T21:37:30.263Z,52499.73
2022-12-15T21:40:00.972Z,52484.46
2022-12-15T21:42:39.637Z,52501.34
2022-12-15T21:45:16.924Z,52494.11
2022-12-15T21:48:04.642Z,52493.30
2022-12-15T21:50:34.869Z,52483.66
2022-12-15T21:53:05.594Z,52473.21
2022-12-15T21:55:35.631Z,52502.14
2022-12-15T21:58:07.560Z,52475.22
2022-12-15T22:00:40.935Z,52492.10
2022-12-15T22:03:15.315Z,52490.89
2022-12-15T22:05:45.324Z,52485.67
2022-12-15T22:08:16.858Z,52479.64
2022-12-15T22:10:47.175Z,52506.56
2022-12-15T22:13:19.153Z,52486.48
2022-12-15T22:15:50.917Z,52490.89
2022-12-15T22:18:22.700Z,52478.43
2022-12-15T22:20:52.961Z,52460.35
2022-12-15T22:23:23.124Z,52490.09
2022-12-15T22:25:54.705Z,52485.66
2022-12-15T22:28:25.797Z,52479.24
2022-12-15T22:30:55.702Z,52492.50
2022-12-15T22:33:26.140Z,52476.82
2022-12-15T22:35:56.634Z,52459.54
2022-12-15T22:38:26.816Z,52485.26
2022-12-15T22:40:58.159Z,52503.75
2022-12-15T22:43:29.324Z,52473.21
2022-12-15T22:45:59.565Z,52504.15
2022-12-15T22:48:31.231Z,52484.06
2022-12-15T22:51:01.579Z,52475.62
2022-12-15T22:53:32.508Z,52484.86
2022-12-15T22:56:02.387Z,52482.45
2022-12-15T22:58:33.306Z,52507.37
2022-12-15T23:01:03.454Z,52490.09
2022-12-15T23:03:34.328Z,52498.53
2022-12-15T23:06:04.639Z,52481.24
2022-12-15T23:08:34.745Z,52493.30
2022-12-15T23:11:22.281Z,52505.76
2022-12-15T23:13:52.213Z,52483.26
2022-12-15T23:16:22.596Z,52476.02
2022-12-15T23:18:53.439Z,52475.62
2022-12-15T23:21:24.949Z,52492.50
2022-12-15T23:23:54.929Z,52491.70
2022-12-15T23:26:27.270Z,52489.28
2022-12-15T23:28:59.539Z,52489.29
2022-12-15T23:31:29.468Z,52497.73
2022-12-15T23:33:59.487Z,52491.29
2022-12-15T23:36:29.843Z,52485.67
2022-12-15T23:38:59.992Z,52494.11
2022-12-15T23:41:30.207Z,52492.50
2022-12-15T23:44:00.875Z,52495.71
2022-12-15T23:46:31.029Z,52478.84
2022-12-15T23:49:01.541Z,52476.82
2022-12-15T23:51:31.962Z,52494.91
2022-12-15T23:54:01.948Z,52492.50
2022-12-15T23:56:32.070Z,52498.53
2022-12-15T23:59:01.974Z,52488.48
